createdAt,value
2022-08-30T00:01:09.175Z,79.71
2022-08-30T00:03:46.027Z,79.67
2022-08-30T00:06:15.368Z,79.66
2022-08-30T00:08:43.360Z,79.75
2022-08-30T00:11:13.383Z,79.73
2022-08-30T00:13:43.360Z,79.64
2022-08-30T00:16:10.852Z,79.75
2022-08-30T00:18:38.826Z,79.74
2022-08-30T00:21:06.864Z,79.72
2022-08-30T00:23:33.983Z,79.62
2022-08-30T00:26:02.782Z,79.68
2022-08-30T00:28:30.312Z,79.64
2022-08-30T00:30:57.496Z,79.76
2022-08-30T00:33:24.565Z,79.76
2022-08-30T00:35:51.516Z,79.74
2022-08-30T00:38:18.503Z,79.78
2022-08-30T00:40:46.193Z,79.69
2022-08-30T00:43:30.647Z,79.77
2022-08-30T00:45:57.964Z,79.66
2022-08-30T00:48:25.191Z,79.81
2022-08-30T00:50:56.476Z,79.74
2022-08-30T00:53:27.453Z,79.72
2022-08-30T00:55:55.315Z,79.79
2022-08-30T00:58:26.874Z,79.69
2022-08-30T01:00:55.549Z,79.68
2022-08-30T01:03:23.393Z,79.60
2022-08-30T01:05:51.827Z,79.65
2022-08-30T01:08:22.146Z,79.69
2022-08-30T01:10:51.078Z,79.79
2022-08-30T01:13:18.392Z,79.66
2022-08-30T01:15:46.326Z,79.70
2022-08-30T01:18:15.021Z,79.79
2022-08-30T01:21:06.961Z,79.71
2022-08-30T01:23:36.755Z,79.72
2022-08-30T01:26:06.485Z,79.53
2022-08-30T01:28:34.839Z,79.75
2022-08-30T01:31:02.052Z,79.70
2022-08-30T01:33:29.023Z,79.69
2022-08-30T01:36:02.728Z,79.59
2022-08-30T01:38:44.033Z,79.70
2022-08-30T01:41:18.212Z,79.61
2022-08-30T01:43:45.994Z,79.65
2022-08-30T01:46:14.770Z,79.65
2022-08-30T01:48:42.385Z,79.67
2022-08-30T01:51:18.034Z,79.59
2022-08-30T01:53:45.778Z,79.59
2022-08-30T01:56:14.064Z,79.58
2022-08-30T01:58:41.259Z,79.60
2022-08-30T02:01:09.527Z,79.60
2022-08-30T02:03:37.431Z,79.62
2022-08-30T02:06:10.116Z,79.46
2022-08-30T02:08:37.976Z,79.54
2022-08-30T02:11:06.228Z,79.41
2022-08-30T02:13:33.916Z,79.43
2022-08-30T02:16:00.876Z,79.53
2022-08-30T02:18:28.283Z,79.50
2022-08-30T02:20:55.361Z,79.47
2022-08-30T02:23:22.304Z,79.28
2022-08-30T02:25:49.207Z,79.50
2022-08-30T02:28:16.123Z,79.44
2022-08-30T02:30:49.039Z,79.31
2022-08-30T02:33:16.300Z,79.36
2022-08-30T02:35:43.403Z,79.53
2022-08-30T02:38:10.796Z,79.46
2022-08-30T02:40:39.065Z,79.39
2022-08-30T02:43:06.831Z,79.34
2022-08-30T02:45:34.060Z,79.30
2022-08-30T02:48:01.124Z,79.40
2022-08-30T02:50:28.053Z,79.20
2022-08-30T02:52:55.378Z,79.39
2022-08-30T02:55:23.186Z,79.46
2022-08-30T02:57:50.294Z,79.35
2022-08-30T03:00:19.310Z,79.43
2022-08-30T03:02:46.664Z,79.35
2022-08-30T03:05:15.535Z,79.47
2022-08-30T03:07:43.463Z,79.16
2022-08-30T03:10:11.073Z,79.31
2022-08-30T03:12:41.589Z,79.51
2022-08-30T03:15:10.636Z,79.35
2022-08-30T03:17:37.616Z,79.50
2022-08-30T03:20:05.518Z,79.41
2022-08-30T03:22:32.727Z,79.40
2022-08-30T03:25:01.402Z,79.50
2022-08-30T03:27:29.217Z,79.13
2022-08-30T03:29:56.665Z,79.26
2022-08-30T03:32:23.686Z,79.02
2022-08-30T03:34:50.885Z,79.31
2022-08-30T03:37:17.984Z,79.16
2022-08-30T03:39:45.634Z,79.22
2022-08-30T03:42:12.786Z,79.21
2022-08-30T03:44:39.966Z,79.21
2022-08-30T03:47:08.622Z,79.15
2022-08-30T03:49:35.665Z,78.99
2022-08-30T03:52:03.360Z,79.08
2022-08-30T03:54:30.737Z,79.22
2022-08-30T03:56:57.989Z,79.12
2022-08-30T03:59:24.924Z,79.14
2022-08-30T04:01:52.023Z,79.14
2022-08-30T04:04:21.097Z,78.92
2022-08-30T04:06:49.138Z,79.11
2022-08-30T04:09:16.588Z,79.10
2022-08-30T04:11:43.664Z,78.88
2022-08-30T04:14:10.898Z,78.83
2022-08-30T04:16:37.889Z,78.70
2022-08-30T04:19:05.555Z,78.49
2022-08-30T04:21:32.574Z,78.57
2022-08-30T04:24:02.186Z,78.38
2022-08-30T04:26:29.181Z,78.39
2022-08-30T04:28:56.835Z,78.05
2022-08-30T04:31:24.233Z,77.94
2022-08-30T04:33:51.224Z,77.98
2022-08-30T04:36:18.366Z,78.13
2022-08-30T04:38:45.244Z,77.78
2022-08-30T04:41:16.453Z,77.51
2022-08-30T04:43:45.551Z,77.72
2022-08-30T04:46:16.668Z,77.65
2022-08-30T04:48:44.046Z,77.56
2022-08-30T04:51:14.131Z,77.75
2022-08-30T04:53:45.011Z,77.83
2022-08-30T04:56:18.207Z,77.73
2022-08-30T04:58:46.599Z,77.83
2022-08-30T05:01:20.424Z,77.63
2022-08-30T05:03:52.256Z,77.63
2022-08-30T05:06:19.776Z,77.67
2022-08-30T05:08:47.044Z,77.70
2022-08-30T05:11:16.214Z,77.69
2022-08-30T05:13:44.206Z,77.86
2022-08-30T05:16:13.573Z,77.72
2022-08-30T05:18:40.686Z,77.61
2022-08-30T05:21:12.157Z,77.42
2022-08-30T05:23:40.336Z,77.31
2022-08-30T05:26:10.000Z,77.23
2022-08-30T05:28:37.169Z,77.17
2022-08-30T05:31:14.255Z,77.16
2022-08-30T05:33:42.030Z,76.98
2022-08-30T05:36:10.097Z,76.84
2022-08-30T05:38:37.307Z,76.69
2022-08-30T05:41:10.629Z,76.71
2022-08-30T05:43:38.565Z,76.59
2022-08-30T05:46:08.741Z,76.34
2022-08-30T05:48:38.730Z,76.32
2022-08-30T05:51:13.858Z,76.22
2022-08-30T05:53:41.567Z,76.05
2022-08-30T05:56:11.608Z,76.05
2022-08-30T05:58:38.771Z,76.03
2022-08-30T06:01:06.552Z,75.78
2022-08-30T06:03:33.567Z,75.83
2022-08-30T06:06:01.055Z,75.70
2022-08-30T06:08:28.125Z,75.62
2022-08-30T06:10:55.257Z,75.37
2022-08-30T06:13:22.501Z,75.46
2022-08-30T06:15:51.142Z,75.27
2022-08-30T06:18:18.835Z,75.21
2022-08-30T06:20:55.301Z,75.01
2022-08-30T06:23:22.857Z,74.76
2022-08-30T06:25:49.848Z,74.78
2022-08-30T06:28:17.239Z,74.59
2022-08-30T06:30:44.317Z,74.49
2022-08-30T06:33:11.420Z,74.28
2022-08-30T06:35:56.706Z,74.08
2022-08-30T06:38:25.690Z,73.97
2022-08-30T06:40:52.697Z,73.88
2022-08-30T06:43:19.784Z,73.60
2022-08-30T06:45:46.842Z,73.53
2022-08-30T06:48:13.753Z,73.44
2022-08-30T06:50:42.243Z,73.43
2022-08-30T06:53:09.671Z,73.21
2022-08-30T06:55:37.452Z,73.12
2022-08-30T06:58:04.853Z,72.99
2022-08-30T07:00:31.841Z,72.64
2022-08-30T07:02:59.237Z,72.61
2022-08-30T07:05:26.242Z,72.52
2022-08-30T07:07:56.241Z,72.33
2022-08-30T07:10:23.203Z,72.40
2022-08-30T07:12:50.371Z,72.25
2022-08-30T07:15:20.567Z,72.28
2022-08-30T07:18:06.302Z,72.21
2022-08-30T07:20:40.548Z,72.22
2022-08-30T07:23:09.333Z,72.10
2022-08-30T07:25:40.233Z,72.10
2022-08-30T07:28:08.282Z,72.09
2022-08-30T07:30:36.003Z,71.90
2022-08-30T07:33:03.189Z,71.78
2022-08-30T07:35:30.272Z,71.61
2022-08-30T07:37:58.531Z,71.61
2022-08-30T07:40:26.344Z,71.47
2022-08-30T07:42:53.640Z,71.55
2022-08-30T07:45:20.973Z,71.35
2022-08-30T07:47:48.024Z,71.48
2022-08-30T07:50:15.161Z,71.42
2022-08-30T07:52:42.064Z,71.30
2022-08-30T07:55:10.148Z,71.30
2022-08-30T07:57:37.194Z,71.47
2022-08-30T08:00:05.503Z,71.42
2022-08-30T08:02:40.899Z,71.29
2022-08-30T08:05:10.269Z,71.04
2022-08-30T08:07:39.337Z,71.03
2022-08-30T08:10:06.975Z,71.01
2022-08-30T08:12:35.015Z,71.02
2022-08-30T08:15:05.418Z,71.08
2022-08-30T08:17:35.814Z,70.99
2022-08-30T08:20:03.960Z,71.01
2022-08-30T08:22:31.049Z,71.02
2022-08-30T08:24:58.041Z,71.08
2022-08-30T08:27:25.186Z,71.03
2022-08-30T08:29:52.117Z,70.96
2022-08-30T08:32:19.134Z,71.14
2022-08-30T08:34:46.273Z,71.31
2022-08-30T08:37:13.236Z,71.25
2022-08-30T08:39:40.207Z,71.25
2022-08-30T08:42:25.621Z,71.13
2022-08-30T08:45:03.786Z,71.70
2022-08-30T08:47:57.972Z,71.75
2022-08-30T08:50:29.002Z,72.02
2022-08-30T08:53:45.578Z,72.24
2022-08-30T08:56:15.174Z,72.44
2022-08-30T08:58:45.442Z,72.87
2022-08-30T09:01:14.154Z,73.13
2022-08-30T09:03:41.988Z,73.28
2022-08-30T09:06:32.957Z,73.63
2022-08-30T09:09:00.078Z,73.94
2022-08-30T09:11:30.438Z,74.08
2022-08-30T09:13:57.435Z,74.15
2022-08-30T09:17:03.254Z,74.37
2022-08-30T09:19:35.815Z,74.58
2022-08-30T09:22:13.038Z,74.65
2022-08-30T09:24:48.954Z,74.73
2022-08-30T09:27:22.164Z,74.84
2022-08-30T09:30:04.523Z,74.65
2022-08-30T09:32:38.991Z,74.84
2022-08-30T09:35:10.393Z,74.85
2022-08-30T09:37:45.894Z,75.10
2022-08-30T09:40:17.353Z,74.93
2022-08-30T09:43:19.378Z,74.91
2022-08-30T09:45:50.300Z,74.97
2022-08-30T09:48:45.152Z,75.11
2022-08-30T09:51:12.574Z,75.15
2022-08-30T09:57:13.298Z,75.49
2022-08-30T09:59:58.232Z,75.62
2022-08-30T10:02:43.923Z,75.80
2022-08-30T10:05:13.853Z,75.77
2022-08-30T10:08:12.759Z,75.82
2022-08-30T10:11:25.080Z,75.81
2022-08-30T10:14:23.875Z,75.98
2022-08-30T10:17:09.921Z,75.88
2022-08-30T10:19:43.002Z,75.73
2022-08-30T10:22:25.023Z,75.89
2022-08-30T10:24:53.142Z,75.70
2022-08-30T10:27:21.269Z,75.65
2022-08-30T10:29:55.351Z,75.52
2022-08-30T10:32:27.061Z,75.47
2022-08-30T10:35:00.523Z,75.36
2022-08-30T10:37:30.414Z,75.07
2022-08-30T10:40:21.194Z,74.94
2022-08-30T10:42:49.772Z,74.71
2022-08-30T10:45:17.362Z,74.54
2022-08-30T10:48:07.395Z,74.22
2022-08-30T10:50:53.756Z,74.21
2022-08-30T10:53:47.193Z,74.03
2022-08-30T10:56:21.343Z,73.99
2022-08-30T10:58:49.132Z,73.82
2022-08-30T11:01:46.285Z,73.61
2022-08-30T11:04:45.408Z,73.62
2022-08-30T11:07:15.623Z,73.57
2022-08-30T11:09:58.182Z,73.38
2022-08-30T11:12:52.193Z,73.29
2022-08-30T11:15:25.848Z,73.14
2022-08-30T11:18:03.932Z,72.96
2022-08-30T11:20:50.892Z,72.90
2022-08-30T11:23:36.591Z,72.72
2022-08-30T11:26:03.551Z,72.76
2022-08-30T11:28:36.491Z,72.59
2022-08-30T11:31:15.849Z,72.36
2022-08-30T11:33:51.532Z,72.44
2022-08-30T11:36:37.697Z,72.36
2022-08-30T11:39:14.157Z,72.16
2022-08-30T11:41:47.950Z,72.13
2022-08-30T11:44:28.718Z,72.01
2022-08-30T11:46:59.044Z,71.78
2022-08-30T11:49:46.088Z,71.70
2022-08-30T11:52:54.927Z,71.53
2022-08-30T11:55:45.461Z,71.31
2022-08-30T11:58:31.053Z,70.94
2022-08-30T12:01:51.083Z,70.80
2022-08-30T12:04:17.190Z,70.40
2022-08-30T12:07:04.230Z,70.14
2022-08-30T12:09:33.130Z,69.96
2022-08-30T12:12:02.752Z,69.66
2022-08-30T12:14:54.684Z,69.38
2022-08-30T12:17:46.272Z,69.07
2022-08-30T12:20:39.223Z,68.82
2022-08-30T12:23:33.346Z,68.52
2022-08-30T12:26:38.539Z,68.41
2022-08-30T12:29:18.361Z,67.96
2022-08-30T12:32:08.301Z,67.74
2022-08-30T12:34:38.527Z,67.45
2022-08-30T12:37:10.863Z,67.18
2022-08-30T12:39:39.029Z,66.91
2022-08-30T12:42:27.157Z,66.77
2022-08-30T12:44:57.953Z,66.56
2022-08-30T12:47:33.441Z,66.26
2022-08-30T12:50:01.794Z,66.04
2022-08-30T12:52:37.712Z,66.10
2022-08-30T12:55:24.221Z,65.94
2022-08-30T12:58:00.745Z,65.68
2022-08-30T13:00:28.121Z,65.58
2022-08-30T13:02:58.244Z,65.43
2022-08-30T13:05:48.336Z,65.40
2022-08-30T13:08:36.819Z,65.15
2022-08-30T13:11:08.555Z,65.18
2022-08-30T13:13:51.995Z,64.99
2022-08-30T13:16:23.063Z,64.95
2022-08-30T13:18:55.651Z,64.89
2022-08-30T13:21:34.974Z,64.79
2022-08-30T13:24:04.885Z,64.76
2022-08-30T13:26:35.495Z,64.70
2022-08-30T13:29:05.611Z,64.46
2022-08-30T13:31:37.603Z,64.40
2022-08-30T13:34:05.247Z,64.17
2022-08-30T13:36:36.709Z,64.11
2022-08-30T13:39:04.892Z,63.88
2022-08-30T13:41:34.216Z,63.92
2022-08-30T13:44:20.255Z,63.88
2022-08-30T13:46:55.302Z,63.82
2022-08-30T13:49:45.478Z,63.76
2022-08-30T13:52:21.785Z,63.84
2022-08-30T13:54:53.730Z,63.62
2022-08-30T14:00:15.182Z,63.37
2022-08-30T14:02:47.603Z,63.32
2022-08-30T14:05:46.734Z,63.19
2022-08-30T14:08:05.141Z,63.16
2022-08-30T14:10:37.721Z,63.14
2022-08-30T14:13:12.887Z,63.09
2022-08-30T14:15:41.564Z,63.02
2022-08-30T14:18:08.887Z,63.00
2022-08-30T14:20:38.578Z,62.92
2022-08-30T14:23:07.643Z,62.86
2022-08-30T14:25:37.854Z,62.89
2022-08-30T14:28:09.637Z,62.83
2022-08-30T14:30:38.911Z,62.72
2022-08-30T14:33:06.422Z,62.67
2022-08-30T14:35:33.821Z,62.47
2022-08-30T14:38:00.762Z,62.41
2022-08-30T14:40:27.932Z,62.48
2022-08-30T14:42:55.126Z,62.25
2022-08-30T14:45:22.363Z,62.09
2022-08-30T14:47:49.943Z,61.74
2022-08-30T14:50:17.165Z,61.49
2022-08-30T14:52:45.368Z,61.12
2022-08-30T14:55:13.285Z,60.96
2022-08-30T14:57:40.588Z,60.46
2022-08-30T15:00:11.647Z,59.94
2022-08-30T15:02:38.595Z,59.81
2022-08-30T15:05:08.380Z,59.74
2022-08-30T15:07:35.809Z,59.54
2022-08-30T15:10:03.676Z,59.45
2022-08-30T15:12:30.604Z,59.47
2022-08-30T15:14:57.604Z,59.54
2022-08-30T15:17:24.652Z,59.69
2022-08-30T15:19:51.666Z,59.97
2022-08-30T15:22:18.806Z,60.05
2022-08-30T15:24:46.646Z,60.19
2022-08-30T15:27:16.331Z,60.46
2022-08-30T15:29:43.144Z,60.51
2022-08-30T15:32:09.997Z,60.76
2022-08-30T15:34:36.961Z,60.79
2022-08-30T15:37:05.155Z,61.07
2022-08-30T15:39:34.794Z,61.13
2022-08-30T15:42:02.016Z,61.20
2022-08-30T15:44:32.309Z,61.42
2022-08-30T15:47:01.797Z,61.65
2022-08-30T15:49:28.986Z,61.85
2022-08-30T15:52:00.828Z,62.07
2022-08-30T15:54:28.974Z,62.21
2022-08-30T15:56:59.729Z,62.32
2022-08-30T15:59:28.225Z,62.46
2022-08-30T16:01:55.273Z,62.68
2022-08-30T16:04:24.298Z,62.97
2022-08-30T16:06:52.956Z,63.00
2022-08-30T16:09:20.023Z,63.44
2022-08-30T16:11:46.961Z,63.42
2022-08-30T16:14:14.173Z,63.55
2022-08-30T16:16:41.983Z,63.63
2022-08-30T16:19:09.432Z,63.66
2022-08-30T16:21:37.114Z,63.83
2022-08-30T16:24:05.888Z,63.93
2022-08-30T16:26:34.923Z,63.97
2022-08-30T16:29:03.952Z,63.96
2022-08-30T16:31:32.073Z,63.89
2022-08-30T16:34:02.823Z,63.98
2022-08-30T16:36:32.106Z,64.10
2022-08-30T16:38:59.579Z,64.01
2022-08-30T16:41:26.689Z,64.01
2022-08-30T16:43:54.240Z,64.01
2022-08-30T16:46:27.398Z,63.89
2022-08-30T16:48:57.543Z,64.12
2022-08-30T16:51:26.796Z,64.16
2022-08-30T16:53:58.633Z,64.37
2022-08-30T16:56:27.492Z,64.56
2022-08-30T16:59:01.192Z,64.58
2022-08-30T17:01:34.804Z,64.73
2022-08-30T17:04:02.790Z,64.87
2022-08-30T17:06:30.070Z,65.03
2022-08-30T17:08:57.174Z,65.22
2022-08-30T17:11:24.769Z,65.35
2022-08-30T17:13:52.316Z,65.43
2022-08-30T17:16:22.770Z,65.41
2022-08-30T17:18:56.288Z,65.92
2022-08-30T17:21:27.395Z,65.97
2022-08-30T17:23:54.329Z,66.09
2022-08-30T17:26:28.446Z,66.32
2022-08-30T17:28:55.413Z,66.42
2022-08-30T17:31:23.111Z,66.54
2022-08-30T17:33:50.645Z,66.76
2022-08-30T17:36:17.556Z,66.93
2022-08-30T17:38:45.200Z,67.07
2022-08-30T17:41:13.341Z,67.28
2022-08-30T17:43:40.423Z,67.64
2022-08-30T17:46:10.218Z,67.49
2022-08-30T17:48:37.994Z,67.69
2022-08-30T17:51:05.984Z,67.78
2022-08-30T17:53:34.064Z,67.92
2022-08-30T17:56:01.204Z,68.02
2022-08-30T17:58:28.095Z,68.18
2022-08-30T18:01:14.896Z,68.30
2022-08-30T18:03:45.415Z,68.51
2022-08-30T18:06:13.626Z,68.60
2022-08-30T18:08:41.505Z,68.90
2022-08-30T18:11:08.847Z,68.86
2022-08-30T18:13:36.062Z,69.02
2022-08-30T18:16:04.338Z,69.29
2022-08-30T18:18:32.687Z,69.49
2022-08-30T18:20:59.959Z,69.57
2022-08-30T18:23:27.239Z,69.64
2022-08-30T18:26:01.435Z,69.83
2022-08-30T18:28:29.322Z,69.86
2022-08-30T18:30:59.236Z,70.09
2022-08-30T18:33:27.476Z,70.19
2022-08-30T18:35:55.851Z,70.44
2022-08-30T18:38:24.475Z,70.37
2022-08-30T18:40:53.240Z,70.62
2022-08-30T18:43:22.939Z,70.70
2022-08-30T18:45:57.378Z,71.13
2022-08-30T18:48:24.256Z,71.05
2022-08-30T18:50:55.343Z,71.20
2022-08-30T18:53:28.309Z,71.13
2022-08-30T18:55:56.267Z,71.44
2022-08-30T18:58:23.197Z,71.55
2022-08-30T19:00:50.826Z,71.63
2022-08-30T19:03:18.946Z,71.75
2022-08-30T19:05:46.378Z,71.93
2022-08-30T19:08:13.866Z,71.92
2022-08-30T19:10:41.610Z,72.22
2022-08-30T19:13:10.259Z,72.18
2022-08-30T19:15:38.882Z,72.27
2022-08-30T19:18:12.902Z,72.38
2022-08-30T19:20:44.819Z,72.61
2022-08-30T19:23:12.768Z,72.43
2022-08-30T19:25:40.991Z,72.47
2022-08-30T19:28:08.807Z,72.53
2022-08-30T19:30:36.966Z,72.79
2022-08-30T19:33:05.789Z,72.61
2022-08-30T19:35:33.506Z,72.67
2022-08-30T19:38:00.560Z,72.76
2022-08-30T19:40:28.690Z,72.70
2022-08-30T19:42:55.987Z,73.08
2022-08-30T19:45:23.211Z,73.01
2022-08-30T19:47:51.532Z,73.03
2022-08-30T19:50:18.881Z,73.03
2022-08-30T19:52:52.682Z,73.34
2022-08-30T19:55:28.099Z,73.39
2022-08-30T19:57:56.395Z,73.29
2022-08-30T20:00:23.807Z,73.53
2022-08-30T20:02:52.002Z,73.51
2022-08-30T20:05:21.428Z,73.57
2022-08-30T20:07:51.104Z,73.83
2022-08-30T20:10:20.722Z,73.71
2022-08-30T20:12:52.938Z,74.03
2022-08-30T20:15:20.649Z,74.12
2022-08-30T20:18:05.129Z,74.05
2022-08-30T20:20:36.305Z,74.11
2022-08-30T20:23:05.067Z,73.96
2022-08-30T20:25:32.503Z,74.31
2022-08-30T20:28:01.500Z,74.41
2022-08-30T20:30:28.454Z,74.27
2022-08-30T20:32:56.530Z,74.37
2022-08-30T20:35:24.249Z,74.49
2022-08-30T20:37:51.452Z,74.51
2022-08-30T20:40:19.061Z,74.58
2022-08-30T20:42:46.726Z,74.54
2022-08-30T20:45:16.273Z,74.56
2022-08-30T20:47:43.520Z,74.57
2022-08-30T20:50:13.637Z,74.63
2022-08-30T20:52:41.706Z,74.91
2022-08-30T20:55:10.226Z,74.77
2022-08-30T20:57:37.507Z,74.94
2022-08-30T21:00:11.071Z,74.96
2022-08-30T21:02:46.674Z,75.12
2022-08-30T21:05:16.306Z,75.08
2022-08-30T21:07:45.656Z,74.94
2022-08-30T21:10:13.381Z,75.05
2022-08-30T21:12:40.353Z,75.19
2022-08-30T21:15:34.138Z,75.23
2022-08-30T21:17:55.346Z,75.01
2022-08-30T21:20:22.850Z,75.18
2022-08-30T21:22:49.976Z,75.34
2022-08-30T21:25:17.198Z,75.05
2022-08-30T21:27:44.424Z,75.19
2022-08-30T21:30:13.332Z,75.33
2022-08-30T21:32:41.096Z,75.40
2022-08-30T21:35:27.559Z,75.25
2022-08-30T21:37:55.435Z,75.28
2022-08-30T21:40:22.657Z,75.23
2022-08-30T21:42:49.710Z,75.22
2022-08-30T21:45:16.704Z,75.11
2022-08-30T21:47:43.982Z,75.08
2022-08-30T21:50:11.629Z,75.27
2022-08-30T21:52:38.685Z,75.16
2022-08-30T21:55:06.433Z,75.10
2022-08-30T21:57:33.440Z,74.97
2022-08-30T22:00:00.410Z,75.08
2022-08-30T22:02:28.841Z,75.01
2022-08-30T22:04:56.156Z,75.22
2022-08-30T22:07:23.055Z,75.07
2022-08-30T22:09:50.140Z,75.19
2022-08-30T22:12:17.550Z,75.10
2022-08-30T22:14:44.544Z,74.91
2022-08-30T22:17:11.569Z,74.84
2022-08-30T22:19:38.587Z,75.01
2022-08-30T22:22:06.016Z,74.82
2022-08-30T22:24:33.307Z,74.69
2022-08-30T22:27:05.082Z,74.84
2022-08-30T22:29:32.756Z,74.91
2022-08-30T22:32:01.219Z,74.85
2022-08-30T22:34:28.336Z,74.89
2022-08-30T22:36:55.536Z,74.67
2022-08-30T22:39:22.477Z,74.90
2022-08-30T22:41:50.382Z,74.66
2022-08-30T22:44:17.485Z,74.59
2022-08-30T22:46:45.107Z,74.66
2022-08-30T22:49:12.545Z,74.64
2022-08-30T22:51:41.087Z,74.72
2022-08-30T22:54:09.945Z,74.45
2022-08-30T22:56:38.296Z,74.59
2022-08-30T22:59:06.322Z,74.82
2022-08-30T23:01:39.752Z,74.71
2022-08-30T23:04:08.082Z,74.76
2022-08-30T23:06:35.573Z,74.62
2022-08-30T23:09:03.650Z,74.73
2022-08-30T23:11:30.603Z,74.60
2022-08-30T23:14:00.466Z,74.87
2022-08-30T23:16:27.458Z,74.62
2022-08-30T23:18:54.507Z,74.87
2022-08-30T23:21:24.609Z,74.65
2022-08-30T23:24:11.728Z,74.82
2022-08-30T23:26:58.447Z,74.95
2022-08-30T23:29:44.556Z,74.83
2022-08-30T23:32:30.557Z,75.11
2022-08-30T23:35:16.306Z,75.02
2022-08-30T23:38:01.953Z,74.78
2022-08-30T23:40:47.690Z,74.83
2022-08-30T23:43:33.115Z,74.73
2022-08-30T23:46:19.732Z,74.74
2022-08-30T23:49:09.000Z,74.68
2022-08-30T23:51:56.135Z,74.58
2022-08-30T23:54:42.637Z,74.45
2022-08-30T23:57:28.505Z,74.46
